Time,TemperatureF,DewpointF,PressureIn,WindDirection,WindDirectionDegrees,WindSpeedMPH,WindSpeedGustMPH,Humidity,HourlyPrecipIn,Conditions,Clouds,dailyrainin,SolarRadiationWatts/m^2,SoftwareType,DateUTC
2013-04-02 00:03:00,34.0,14.9,29.94,SSE,158,0.0,1.0,45,-99.99,,,0.02,0.00,VWS V14.01,2013-04-02 04:03:00,
2013-04-02 00:08:00,34.0,15.4,29.94,SW,225,3.0,4.0,46,-99.99,,,0.02,0.00,VWS V14.01,2013-04-02 04:08:00,
2013-04-02 00:13:00,34.0,14.9,29.94,SW,225,1.0,2.0,45,-99.99,,,0.02,0.00,VWS V14.01,2013-04-02 04:13:00,
2013-04-02 00:18:00,34.0,15.4,29.94,South,180,0.0,1.0,46,-99.99,,,0.02,0.00,VWS V14.01,2013-04-02 04:18:00,
2013-04-02 00:23:00,34.0,14.9,29.94,SE,135,1.0,2.0,45,-99.99,,,0.02,0.00,VWS V14.01,2013-04-02 04:23:00,
2013-04-02 00:28:00,34.0,15.4,29.94,SSW,202,0.0,1.0,46,-99.99,,,0.02,0.00,VWS V14.01,2013-04-02 04:28:00,
2013-04-02 00:33:00,33.0,14.5,29.94,SSW,202,0.0,1.0,46,-99.99,,,0.02,0.00,VWS V14.01,2013-04-02 04:33:00,
2013-04-02 00:38:00,33.0,14.5,29.94,SSW,202,5.0,6.0,46,-99.99,,,0.02,0.00,VWS V14.01,2013-04-02 04:38:00,
2013-04-02 00:43:00,33.0,14.5,29.94,WSW,248,4.0,6.0,46,-99.99,,,0.02,0.00,VWS V14.01,2013-04-02 04:43:00,
2013-04-02 00:48:00,33.0,14.0,29.95,SW,225,5.0,7.0,45,-99.99,,,0.02,0.00,VWS V14.01,2013-04-02 04:48:00,
2013-04-02 00:53:00,33.0,14.0,29.95,SW,225,4.0,5.0,45,-99.99,,,0.02,0.00,VWS V14.01,2013-04-02 04:53:00,
2013-04-02 00:58:00,33.0,14.0,29.95,SSW,202,5.0,7.0,45,-99.99,,,0.02,0.00,VWS V14.01,2013-04-02 04:58:00,
2013-04-02 01:03:00,33.0,14.0,29.95,SW,225,7.0,8.0,45,-99.99,,,0.02,0.00,VWS V14.01,2013-04-02 05:03:00,
2013-04-02 01:08:00,33.0,14.0,29.95,SW,225,6.0,9.0,45,-99.99,,,0.00,0.00,VWS V14.01,2013-04-02 05:08:00,
2013-04-02 01:14:00,33.0,14.5,29.95,SW,225,5.0,6.0,46,-99.99,,,0.00,0.00,VWS V14.01,2013-04-02 05:14:00,
2013-04-02 01:19:00,33.0,14.5,29.95,SW,225,3.0,7.0,46,-99.99,,,0.00,0.00,VWS V14.01,2013-04-02 05:19:00,
2013-04-02 01:24:00,33.0,14.5,29.95,WSW,248,3.0,6.0,46,-99.99,,,0.00,0.00,VWS V14.01,2013-04-02 05:24:00,
2013-04-02 01:29:00,33.0,14.0,29.95,SW,225,6.0,9.0,45,-99.99,,,0.00,0.00,VWS V14.01,2013-04-02 05:29:00,
2013-04-02 01:34:00,33.0,14.5,29.96,SSW,202,4.0,7.0,46,-99.99,,,0.00,0.00,VWS V14.01,2013-04-02 05:34:00,
2013-04-02 01:39:00,33.0,14.5,29.96,WSW,248,8.0,9.0,46,-99.99,,,0.00,0.00,VWS V14.01,2013-04-02 05:39:00,
2013-04-02 01:44:00,33.0,14.5,29.96,SW,225,5.0,7.0,46,-99.99,,,0.00,0.00,VWS V14.01,2013-04-02 05:44:00,
2013-04-02 01:49:00,33.0,14.5,29.96,SW,225,4.0,9.0,46,-99.99,,,0.00,0.00,VWS V14.01,2013-04-02 05:49:00,
2013-04-02 01:54:00,33.0,14.5,29.96,SW,225,10.0,12.0,46,-99.99,,,0.00,0.00,VWS V14.01,2013-04-02 05:54:00,
2013-04-02 01:59:00,33.0,14.5,29.95,SW,225,6.0,7.0,46,-99.99,,,0.00,0.00,VWS V14.01,2013-04-02 05:59:00,
2013-04-02 02:04:00,33.0,14.5,29.95,SW,225,4.0,8.0,46,-99.99,,,0.00,0.00,VWS V14.01,2013-04-02 06:04:00,
2013-04-02 02:09:00,33.0,14.5,29.95,SW,225,4.0,8.0,46,-99.99,,,0.00,0.00,VWS V14.01,2013-04-02 06:09:00,
2013-04-02 02:14:00,33.0,14.5,29.95,SW,225,6.0,8.0,46,-99.99,,,0.00,0.00,VWS V14.01,2013-04-02 06:14:00,
2013-04-02 02:19:00,33.0,15.0,29.95,SSW,202,1.0,8.0,47,-99.99,,,0.00,0.00,VWS V14.01,2013-04-02 06:19:00,
2013-04-02 02:24:00,32.0,13.6,29.95,SW,225,4.0,6.0,46,-99.99,,,0.00,0.00,VWS V14.01,2013-04-02 06:24:00,
2013-04-02 02:29:00,32.0,14.1,29.95,SW,225,6.0,7.0,47,-99.99,,,0.00,0.00,VWS V14.01,2013-04-02 06:29:00,
2013-04-02 02:34:00,33.0,15.0,29.95,WSW,248,4.0,4.0,47,-99.99,,,0.00,0.00,VWS V14.01,2013-04-02 06:34:00,
2013-04-02 02:39:00,32.0,14.1,29.95,SW,225,3.0,4.0,47,-99.99,,,0.00,0.00,VWS V14.01,2013-04-02 06:39:00,
2013-04-02 02:44:00,32.0,14.6,29.95,SW,225,4.0,4.0,48,-99.99,,,0.00,0.00,VWS V14.01,2013-04-02 06:44:00,
2013-04-02 02:49:00,32.0,14.6,29.95,WSW,248,4.0,5.0,48,-99.99,,,0.00,0.00,VWS V14.01,2013-04-02 06:49:00,
2013-04-02 02:54:00,32.0,14.6,29.95,SW,225,4.0,5.0,48,-99.99,,,0.00,0.00,VWS V14.01,2013-04-02 06:54:00,
2013-04-02 02:59:00,32.0,15.0,29.95,SSW,202,3.0,5.0,49,-99.99,,,0.00,0.00,VWS V14.01,2013-04-02 06:59:00,
2013-04-02 03:04:00,32.0,14.6,29.95,SW,225,4.0,7.0,48,-99.99,,,0.00,0.00,VWS V14.01,2013-04-02 07:04:00,
2013-04-02 03:09:00,32.0,15.0,29.95,SW,225,6.0,6.0,49,-99.99,,,0.00,0.00,VWS V14.01,2013-04-02 07:09:00,
2013-04-02 03:14:00,32.0,15.0,29.95,SW,225,8.0,8.0,49,-99.99,,,0.00,0.00,VWS V14.01,2013-04-02 07:14:00,
2013-04-02 03:19:00,32.0,15.0,29.95,SW,225,6.0,7.0,49,-99.99,,,0.00,0.00,VWS V14.01,2013-04-02 07:19:00,
2013-04-02 03:24:00,31.0,14.1,29.95,SW,225,6.0,7.0,49,-99.99,,,0.00,0.00,VWS V14.01,2013-04-02 07:24:00,
2013-04-02 03:29:00,31.0,14.1,29.95,SW,225,4.0,7.0,49,-99.99,,,0.00,0.00,VWS V14.01,2013-04-02 07:29:00,
2013-04-02 03:34:00,32.0,15.0,29.95,SW,225,4.0,6.0,49,-99.99,,,0.00,0.00,VWS V14.01,2013-04-02 07:34:00,
2013-04-02 03:39:00,32.0,15.0,29.95,SSW,202,2.0,4.0,49,-99.99,,,0.00,0.00,VWS V14.01,2013-04-02 07:39:00,
2013-04-02 03:44:00,32.0,15.0,29.95,SSW,202,3.0,8.0,49,-99.99,,,0.00,0.00,VWS V14.01,2013-04-02 07:44:00,
2013-04-02 03:49:00,31.0,14.1,29.95,WSW,248,8.0,10.0,49,-99.99,,,0.00,0.00,VWS V14.01,2013-04-02 07:49:00,
2013-04-02 03:54:00,31.0,14.6,29.95,SW,225,7.0,11.0,50,-99.99,,,0.00,0.00,VWS V14.01,2013-04-02 07:54:00,
2013-04-02 03:59:00,31.0,15.0,29.95,SW,225,5.0,9.0,51,-99.99,,,0.00,0.00,VWS V14.01,2013-04-02 07:59:00,
2013-04-02 04:04:00,31.0,15.0,29.95,WSW,248,7.0,10.0,51,-99.99,,,0.00,0.00,VWS V14.01,2013-04-02 08:04:00,
2013-04-02 04:09:00,31.0,15.4,29.95,SW,225,9.0,9.0,52,-99.99,,,0.00,0.00,VWS V14.01,2013-04-02 08:09:00,
2013-04-02 04:14:00,31.0,15.4,29.95,SSW,202,7.0,10.0,52,-99.99,,,0.00,0.00,VWS V14.01,2013-04-02 08:14:00,
2013-04-02 04:19:00,31.0,15.4,29.95,SW,225,3.0,3.0,52,-99.99,,,0.00,0.00,VWS V14.01,2013-04-02 08:19:00,
2013-04-02 04:24:00,31.0,15.4,29.95,SW,225,5.0,5.0,52,-99.99,,,0.00,0.00,VWS V14.01,2013-04-02 08:24:00,
2013-04-02 04:29:00,31.0,15.4,29.96,SW,225,5.0,7.0,52,-99.99,,,0.00,0.00,VWS V14.01,2013-04-02 08:29:00,
2013-04-02 04:34:00,31.0,15.9,29.95,SW,225,7.0,7.0,53,-99.99,,,0.00,0.00,VWS V14.01,2013-04-02 08:34:00,
2013-04-02 04:39:00,31.0,15.9,29.96,SW,225,6.0,6.0,53,-99.99,,,0.00,0.00,VWS V14.01,2013-04-02 08:39:00,
2013-04-02 04:44:00,31.0,15.9,29.96,WSW,248,4.0,6.0,53,-99.99,,,0.00,0.00,VWS V14.01,2013-04-02 08:44:00,
2013-04-02 04:49:00,31.0,15.9,29.96,SW,225,5.0,6.0,53,-99.99,,,0.00,0.00,VWS V14.01,2013-04-02 08:49:00,
2013-04-02 04:54:00,30.0,15.4,29.96,SW,225,3.0,6.0,54,-99.99,,,0.00,0.00,VWS V14.01,2013-04-02 08:54:00,
2013-04-02 04:59:00,30.0,15.4,29.96,SW,225,8.0,8.0,54,-99.99,,,0.00,0.00,VWS V14.01,2013-04-02 08:59:00,
2013-04-02 05:04:00,31.0,16.3,29.96,SW,225,7.0,7.0,54,-99.99,,,0.00,0.00,VWS V14.01,2013-04-02 09:04:00,
2013-04-02 05:09:00,30.0,15.8,29.96,WSW,248,4.0,4.0,55,-99.99,,,0.00,0.00,VWS V14.01,2013-04-02 09:09:00,
2013-04-02 05:14:00,30.0,15.8,29.97,WSW,248,3.0,4.0,55,-99.99,,,0.00,0.00,VWS V14.01,2013-04-02 09:14:00,
2013-04-02 05:19:00,30.0,15.8,29.97,WSW,248,6.0,8.0,55,-99.99,,,0.00,0.00,VWS V14.01,2013-04-02 09:19:00,
2013-04-02 05:24:00,30.0,16.2,29.97,WSW,248,7.0,7.0,56,-99.99,,,0.00,0.00,VWS V14.01,2013-04-02 09:24:00,
2013-04-02 05:29:00,30.0,16.6,29.97,WSW,248,6.0,6.0,57,-99.99,,,0.00,0.00,VWS V14.01,2013-04-02 09:29:00,
2013-04-02 05:34:00,30.0,17.0,29.97,SW,225,6.0,7.0,58,-99.99,,,0.00,0.00,VWS V14.01,2013-04-02 09:34:00,
2013-04-02 05:39:00,30.0,17.0,29.97,SW,225,5.0,6.0,58,-99.99,,,0.00,0.00,VWS V14.01,2013-04-02 09:39:00,
2013-04-02 05:44:00,30.0,17.4,29.98,WSW,248,7.0,7.0,59,-99.99,,,0.00,0.00,VWS V14.01,2013-04-02 09:44:00,
2013-04-02 05:49:00,30.0,17.8,29.98,WSW,248,4.0,4.0,60,-99.99,,,0.00,0.00,VWS V14.01,2013-04-02 09:49:00,
2013-04-02 05:54:00,30.0,17.8,29.98,SW,225,5.0,5.0,60,-99.99,,,0.00,0.00,VWS V14.01,2013-04-02 09:54:00,
2013-04-02 05:59:00,30.0,18.2,29.98,WSW,248,4.0,4.0,61,-99.99,,,0.00,0.00,VWS V14.01,2013-04-02 09:59:00,
2013-04-02 06:04:00,30.0,18.2,29.98,SW,225,1.0,4.0,61,-99.99,,,0.00,0.00,VWS V14.01,2013-04-02 10:04:00,
2013-04-02 06:09:00,30.0,18.2,29.98,SW,225,6.0,7.0,61,-99.99,,,0.00,0.00,VWS V14.01,2013-04-02 10:09:00,
2013-04-02 06:14:00,30.0,18.6,29.98,SE,135,2.0,2.0,62,-99.99,,,0.00,0.00,VWS V14.01,2013-04-02 10:14:00,
2013-04-02 06:19:00,30.0,18.6,29.99,SSW,202,2.0,3.0,62,-99.99,,,0.00,0.00,VWS V14.01,2013-04-02 10:19:00,
2013-04-02 06:24:00,30.0,19.0,29.99,South,180,3.0,3.0,63,-99.99,,,0.00,0.00,VWS V14.01,2013-04-02 10:24:00,
2013-04-02 06:29:00,30.0,18.6,29.99,SW,225,4.0,5.0,62,-99.99,,,0.00,0.00,VWS V14.01,2013-04-02 10:29:00,
2013-04-02 06:34:00,30.0,18.6,29.99,SSW,202,0.0,2.0,62,-99.99,,,0.00,0.00,VWS V14.01,2013-04-02 10:34:00,
2013-04-02 06:39:00,30.0,18.6,29.99,SW,225,5.0,7.0,62,-99.99,,,0.00,0.00,VWS V14.01,2013-04-02 10:39:00,
2013-04-02 06:44:00,30.0,18.6,29.99,SW,225,7.0,7.0,62,-99.99,,,0.00,10.00,VWS V14.01,2013-04-02 10:44:00,
2013-04-02 06:49:00,30.0,18.6,29.99,SW,225,8.0,10.0,62,-99.99,,,0.00,10.00,VWS V14.01,2013-04-02 10:49:00,
2013-04-02 06:54:00,30.0,19.0,29.99,SSW,202,12.0,13.0,63,-99.99,,,0.00,20.00,VWS V14.01,2013-04-02 10:54:00,
2013-04-02 06:59:00,30.0,19.0,30.00,WSW,248,6.0,8.0,63,-99.99,,,0.00,50.00,VWS V14.01,2013-04-02 10:59:00,
2013-04-02 07:04:00,30.0,18.6,30.00,SW,225,8.0,10.0,62,-99.99,,,0.00,70.00,VWS V14.01,2013-04-02 11:04:00,
2013-04-02 07:09:00,30.0,18.6,30.00,WSW,248,4.0,4.0,62,-99.99,,,0.00,80.00,VWS V14.01,2013-04-02 11:09:00,
2013-04-02 07:14:00,30.0,18.2,30.01,WSW,248,9.0,10.0,61,-99.99,,,0.00,40.00,VWS V14.01,2013-04-02 11:14:00,
2013-04-02 07:19:00,30.0,18.6,30.01,WSW,248,9.0,11.0,62,-99.99,,,0.00,20.00,VWS V14.01,2013-04-02 11:19:00,
2013-04-02 07:24:00,30.0,19.0,30.02,SW,225,9.0,9.0,63,-99.99,,,0.00,30.00,VWS V14.01,2013-04-02 11:24:00,
2013-04-02 07:29:00,30.0,18.6,30.02,SW,225,10.0,10.0,62,-99.99,,,0.00,40.00,VWS V14.01,2013-04-02 11:29:00,
2013-04-02 07:34:00,30.0,18.6,30.02,WSW,248,10.0,13.0,62,-99.99,,,0.00,100.00,VWS V14.01,2013-04-02 11:34:00,
2013-04-02 07:39:00,30.0,18.6,30.02,WSW,248,10.0,10.0,62,-99.99,,,0.00,70.00,VWS V14.01,2013-04-02 11:39:00,
2013-04-02 07:44:00,30.0,19.0,30.02,WSW,248,6.0,8.0,63,-99.99,,,0.00,60.00,VWS V14.01,2013-04-02 11:44:00,
2013-04-02 07:49:00,30.0,18.6,30.02,WSW,248,12.0,13.0,62,-99.99,,,0.00,50.00,VWS V14.01,2013-04-02 11:49:00,
2013-04-02 07:54:00,30.0,18.6,30.03,WSW,248,10.0,12.0,62,-99.99,,,0.00,40.00,VWS V14.01,2013-04-02 11:54:00,
2013-04-02 07:59:00,30.0,18.6,30.03,WSW,248,4.0,5.0,62,-99.99,,,0.00,70.00,VWS V14.01,2013-04-02 11:59:00,
2013-04-02 08:04:00,30.0,17.8,30.03,WSW,248,12.0,12.0,60,-99.99,,,0.00,60.00,VWS V14.01,2013-04-02 12:04:00,
2013-04-02 08:09:00,30.0,18.2,30.04,SW,225,10.0,11.0,61,-99.99,,,0.00,50.00,VWS V14.01,2013-04-02 12:09:00,
2013-04-02 08:14:00,30.0,17.8,30.04,WSW,248,9.0,9.0,60,-99.99,,,0.00,50.00,VWS V14.01,2013-04-02 12:14:00,
2013-04-02 08:19:00,30.0,17.4,30.04,South,180,8.0,12.0,59,-99.99,,,0.00,70.00,VWS V14.01,2013-04-02 12:19:00,
2013-04-02 08:24:00,30.0,17.4,30.05,WSW,248,8.0,13.0,59,-99.99,,,0.00,60.00,VWS V14.01,2013-04-02 12:24:00,
2013-04-02 08:29:00,30.0,16.6,30.05,WSW,248,9.0,11.0,57,-99.99,,,0.00,80.00,VWS V14.01,2013-04-02 12:29:00,
2013-04-02 08:34:00,30.0,16.6,30.05,WSW,248,7.0,8.0,57,-99.99,,,0.00,310.00,VWS V14.01,2013-04-02 12:34:00,
2013-04-02 08:39:00,30.0,16.6,30.05,SW,225,11.0,16.0,57,-99.99,,,0.00,350.00,VWS V14.01,2013-04-02 12:39:00,
2013-04-02 08:44:00,30.0,16.2,30.05,SW,225,11.0,18.0,56,-99.99,,,0.00,370.00,VWS V14.01,2013-04-02 12:44:00,
2013-04-02 08:49:00,30.0,16.2,30.06,West,270,9.0,15.0,56,-99.99,,,0.00,370.00,VWS V14.01,2013-04-02 12:49:00,
2013-04-02 08:54:00,30.0,15.0,30.05,WSW,248,13.0,13.0,53,-99.99,,,0.00,390.00,VWS V14.01,2013-04-02 12:54:00,
2013-04-02 08:59:00,31.0,15.4,30.05,West,270,13.0,14.0,52,-99.99,,,0.00,470.00,VWS V14.01,2013-04-02 12:59:00,
2013-04-02 09:04:00,31.0,15.0,30.05,West,270,13.0,21.0,51,-99.99,,,0.00,100.00,VWS V14.01,2013-04-02 13:04:00,
2013-04-02 09:09:00,31.0,15.0,30.05,SW,225,10.0,16.0,51,-99.99,,,0.00,470.00,VWS V14.01,2013-04-02 13:09:00,
2013-04-02 09:14:00,31.0,14.6,30.06,WSW,248,15.0,17.0,50,-99.99,,,0.00,400.00,VWS V14.01,2013-04-02 13:14:00,
2013-04-02 09:19:00,31.0,14.6,30.06,WSW,248,14.0,18.0,50,-99.99,,,0.00,420.00,VWS V14.01,2013-04-02 13:19:00,
2013-04-02 09:24:00,30.0,12.2,30.06,WSW,248,19.0,21.0,47,-99.99,,,0.00,530.00,VWS V14.01,2013-04-02 13:24:00,
2013-04-02 09:29:00,31.0,14.1,30.06,SW,225,12.0,20.0,49,-99.99,,,0.00,170.00,VWS V14.01,2013-04-02 13:29:00,
2013-04-02 09:34:00,31.0,13.6,30.06,West,270,27.0,27.0,48,-99.99,,,0.00,440.00,VWS V14.01,2013-04-02 13:34:00,
2013-04-02 09:39:00,31.0,14.1,30.06,SW,225,14.0,16.0,49,-99.99,,,0.00,210.00,VWS V14.01,2013-04-02 13:39:00,
2013-04-02 09:44:00,31.0,13.6,30.06,West,270,12.0,18.0,48,-99.99,,,0.00,270.00,VWS V14.01,2013-04-02 13:44:00,
2013-04-02 09:49:00,31.0,13.6,30.06,South,180,12.0,22.0,48,-99.99,,,0.00,230.00,VWS V14.01,2013-04-02 13:49:00,
2013-04-02 09:54:00,31.0,13.6,30.06,WSW,248,9.0,14.0,48,-99.99,,,0.00,250.00,VWS V14.01,2013-04-02 13:54:00,
2013-04-02 09:59:00,31.0,13.1,30.06,SSW,202,19.0,22.0,47,-99.99,,,0.00,270.00,VWS V14.01,2013-04-02 13:59:00,
2013-04-02 10:04:00,31.0,13.6,30.06,West,270,17.0,19.0,48,-99.99,,,0.00,230.00,VWS V14.01,2013-04-02 14:04:00,
2013-04-02 10:09:00,32.0,14.6,30.06,SW,225,13.0,19.0,48,-99.99,,,0.00,190.00,VWS V14.01,2013-04-02 14:09:00,
2013-04-02 10:14:00,31.0,13.6,30.07,SSW,202,8.0,12.0,48,-99.99,,,0.00,220.00,VWS V14.01,2013-04-02 14:14:00,
2013-04-02 10:19:00,31.0,13.6,30.07,WSW,248,20.0,22.0,48,-99.99,,,0.00,200.00,VWS V14.01,2013-04-02 14:19:00,
2013-04-02 10:24:00,31.0,13.6,30.07,SW,225,14.0,16.0,48,-99.99,,,0.00,320.00,VWS V14.01,2013-04-02 14:24:00,
2013-04-02 10:29:00,31.0,12.7,30.07,WSW,248,8.0,13.0,46,-99.99,,,0.00,730.00,VWS V14.01,2013-04-02 14:29:00,
2013-04-02 10:34:00,32.0,13.6,30.06,SSW,202,10.0,24.0,46,-99.99,,,0.00,610.00,VWS V14.01,2013-04-02 14:34:00,
2013-04-02 10:39:00,32.0,13.1,30.06,WSW,248,12.0,21.0,45,-99.99,,,0.00,230.00,VWS V14.01,2013-04-02 14:39:00,
2013-04-02 10:44:00,32.0,14.1,30.06,SSW,202,18.0,19.0,47,-99.99,,,0.00,220.00,VWS V14.01,2013-04-02 14:44:00,
2013-04-02 10:49:00,32.0,13.6,30.07,SSW,202,14.0,21.0,46,-99.99,,,0.00,670.00,VWS V14.01,2013-04-02 14:49:00,
2013-04-02 10:54:00,32.0,13.1,30.06,WSW,248,22.0,23.0,45,-99.99,,,0.00,490.00,VWS V14.01,2013-04-02 14:54:00,
2013-04-02 10:59:00,33.0,14.5,30.06,WSW,248,13.0,17.0,46,-99.99,,,0.00,380.00,VWS V14.01,2013-04-02 14:59:00,
2013-04-02 11:04:00,33.0,13.5,30.06,WSW,248,13.0,16.0,44,-99.99,,,0.00,270.00,VWS V14.01,2013-04-02 15:04:00,
2013-04-02 11:09:00,32.0,13.1,30.07,WSW,248,16.0,19.0,45,-99.99,,,0.00,450.00,VWS V14.01,2013-04-02 15:09:00,
2013-04-02 11:14:00,32.0,13.1,30.06,WSW,248,14.0,21.0,45,-99.99,,,0.00,310.00,VWS V14.01,2013-04-02 15:14:00,
2013-04-02 11:19:00,33.0,15.0,30.06,West,270,8.0,11.0,47,-99.99,,,0.00,740.00,VWS V14.01,2013-04-02 15:19:00,
2013-04-02 11:24:00,33.0,14.0,30.06,West,270,22.0,24.0,45,-99.99,,,0.00,750.00,VWS V14.01,2013-04-02 15:24:00,
2013-04-02 11:29:00,33.0,13.5,30.06,West,270,18.0,19.0,44,-99.99,,,0.00,360.00,VWS V14.01,2013-04-02 15:29:00,
2013-04-02 11:35:00,33.0,12.4,30.06,SW,225,17.0,31.0,42,-99.99,,,0.00,490.00,VWS V14.01,2013-04-02 15:35:00,
2013-04-02 11:40:00,34.0,14.4,30.06,West,270,12.0,15.0,44,-99.99,,,0.00,230.00,VWS V14.01,2013-04-02 15:40:00,
2013-04-02 11:45:00,33.0,13.0,30.06,SW,225,7.0,15.0,43,-99.99,,,0.00,740.00,VWS V14.01,2013-04-02 15:45:00,
2013-04-02 11:50:00,34.0,13.9,30.05,SW,225,15.0,22.0,43,-99.99,,,0.00,660.00,VWS V14.01,2013-04-02 15:50:00,
2013-04-02 11:55:00,34.0,13.9,30.05,SW,225,24.0,24.0,43,-99.99,,,0.00,840.00,VWS V14.01,2013-04-02 15:55:00,
2013-04-02 12:00:00,35.0,14.8,30.05,West,270,16.0,16.0,43,-99.99,,,0.00,260.00,VWS V14.01,2013-04-02 16:00:00,
2013-04-02 12:05:00,35.0,14.2,30.05,SSW,202,13.0,18.0,42,-99.99,,,0.00,410.00,VWS V14.01,2013-04-02 16:05:00,
2013-04-02 12:10:00,35.0,13.7,30.05,West,270,20.0,23.0,41,-99.99,,,0.00,940.00,VWS V14.01,2013-04-02 16:10:00,
2013-04-02 12:15:00,34.0,13.9,30.05,West,270,15.0,15.0,43,-99.99,,,0.00,400.00,VWS V14.01,2013-04-02 16:15:00,
2013-04-02 12:20:00,34.0,13.9,30.05,WSW,248,18.0,30.0,43,-99.99,,,0.00,280.00,VWS V14.01,2013-04-02 16:20:00,
2013-04-02 12:25:00,34.0,14.4,30.05,West,270,15.0,22.0,44,-99.99,,,0.00,250.00,VWS V14.01,2013-04-02 16:25:00,
2013-04-02 12:30:00,34.0,12.8,30.05,WSW,248,17.0,22.0,41,-99.99,,,0.00,260.00,VWS V14.01,2013-04-02 16:30:00,
2013-04-02 12:35:00,34.0,13.9,30.05,WSW,248,22.0,30.0,43,-99.99,,,0.00,820.00,VWS V14.01,2013-04-02 16:35:00,
2013-04-02 12:40:00,34.0,13.9,30.04,WSW,248,14.0,23.0,43,-99.99,,,0.00,330.00,VWS V14.01,2013-04-02 16:40:00,
2013-04-02 12:45:00,35.0,14.8,30.04,WSW,248,26.0,32.0,43,-99.99,,,0.00,390.00,VWS V14.01,2013-04-02 16:45:00,
2013-04-02 12:50:00,35.0,14.8,30.04,SSW,202,17.0,23.0,43,-99.99,,,0.00,790.00,VWS V14.01,2013-04-02 16:50:00,
2013-04-02 12:55:00,36.0,15.7,30.04,SW,225,17.0,17.0,43,-99.99,,,0.00,840.00,VWS V14.01,2013-04-02 16:55:00,
2013-04-02 13:00:00,36.0,12.9,30.04,SSW,202,13.0,37.0,38,-99.99,,,0.00,870.00,VWS V14.01,2013-04-02 17:00:00,
2013-04-02 13:05:00,36.0,12.9,30.04,SW,225,13.0,19.0,38,-99.99,,,0.00,310.00,VWS V14.01,2013-04-02 17:05:00,
2013-04-02 13:10:00,36.0,13.5,30.04,SW,225,7.0,17.0,39,-99.99,,,0.00,800.00,VWS V14.01,2013-04-02 17:10:00,
2013-04-02 13:15:00,36.0,13.5,30.03,WSW,248,18.0,24.0,39,-99.99,,,0.00,230.00,VWS V14.01,2013-04-02 17:15:00,
2013-04-02 13:20:00,37.0,14.4,30.03,South,180,6.0,12.0,39,-99.99,,,0.00,820.00,VWS V14.01,2013-04-02 17:20:00,
2013-04-02 13:25:00,36.0,12.9,30.03,SW,225,13.0,30.0,38,-99.99,,,0.00,500.00,VWS V14.01,2013-04-02 17:25:00,
2013-04-02 13:30:00,36.0,12.9,30.03,West,270,18.0,24.0,38,-99.99,,,0.00,820.00,VWS V14.01,2013-04-02 17:30:00,
2013-04-02 13:35:00,37.0,13.2,30.03,SSW,202,12.0,16.0,37,-99.99,,,0.00,240.00,VWS V14.01,2013-04-02 17:35:00,
2013-04-02 13:40:00,37.0,13.2,30.03,SSW,202,15.0,20.0,37,-99.99,,,0.00,210.00,VWS V14.01,2013-04-02 17:40:00,
2013-04-02 13:45:00,36.0,12.9,30.03,WSW,248,11.0,21.0,38,-99.99,,,0.00,250.00,VWS V14.01,2013-04-02 17:45:00,
2013-04-02 13:50:00,36.0,12.3,30.03,WSW,248,20.0,28.0,37,-99.99,,,0.00,280.00,VWS V14.01,2013-04-02 17:50:00,
2013-04-02 13:55:00,36.0,12.9,30.03,WSW,248,23.0,28.0,38,-99.99,,,0.00,830.00,VWS V14.01,2013-04-02 17:55:00,
2013-04-02 14:00:00,37.0,13.2,30.03,WSW,248,13.0,22.0,37,-99.99,,,0.00,820.00,VWS V14.01,2013-04-02 18:00:00,
2013-04-02 14:05:00,38.0,14.1,30.03,SSW,202,7.0,13.0,37,-99.99,,,0.00,270.00,VWS V14.01,2013-04-02 18:05:00,
2013-04-02 14:10:00,38.0,14.7,30.02,WSW,248,13.0,16.0,38,-99.99,,,0.00,280.00,VWS V14.01,2013-04-02 18:10:00,
2013-04-02 14:15:00,38.0,14.1,30.02,South,180,6.0,10.0,37,-99.99,,,0.00,770.00,VWS V14.01,2013-04-02 18:15:00,
2013-04-02 14:20:00,38.0,13.4,30.02,SW,225,6.0,15.0,36,-99.99,,,0.00,780.00,VWS V14.01,2013-04-02 18:20:00,
2013-04-02 14:25:00,39.0,13.7,30.02,SSW,202,9.0,13.0,35,-99.99,,,0.00,760.00,VWS V14.01,2013-04-02 18:25:00,
2013-04-02 14:30:00,39.0,13.7,30.02,South,180,5.0,8.0,35,-99.99,,,0.00,720.00,VWS V14.01,2013-04-02 18:30:00,
2013-04-02 14:35:00,38.0,12.1,30.02,WSW,248,15.0,15.0,34,-99.99,,,0.00,210.00,VWS V14.01,2013-04-02 18:35:00,
2013-04-02 14:40:00,38.0,12.8,30.02,SSW,202,18.0,21.0,35,-99.99,,,0.00,660.00,VWS V14.01,2013-04-02 18:40:00,
2013-04-02 14:45:00,38.0,12.8,30.02,SW,225,18.0,21.0,35,-99.99,,,0.00,190.00,VWS V14.01,2013-04-02 18:45:00,
2013-04-02 14:50:00,38.0,12.1,30.01,WSW,248,18.0,23.0,34,-99.99,,,0.00,250.00,VWS V14.01,2013-04-02 18:50:00,
2013-04-02 14:55:00,38.0,12.1,30.01,SW,225,14.0,19.0,34,-99.99,,,0.00,170.00,VWS V14.01,2013-04-02 18:55:00,
2013-04-02 15:00:00,39.0,13.7,30.01,SSW,202,15.0,17.0,35,-99.99,,,0.00,270.00,VWS V14.01,2013-04-02 19:00:00,
2013-04-02 15:05:00,38.0,12.1,30.01,WSW,248,10.0,12.0,34,-99.99,,,0.00,690.00,VWS V14.01,2013-04-02 19:05:00,
2013-04-02 15:10:00,39.0,12.4,30.00,SW,225,25.0,31.0,33,-99.99,,,0.00,590.00,VWS V14.01,2013-04-02 19:10:00,
2013-04-02 15:15:00,39.0,13.0,30.00,SE,135,13.0,13.0,34,-99.99,,,0.00,590.00,VWS V14.01,2013-04-02 19:15:00,
2013-04-02 15:20:00,39.0,13.0,30.00,SSW,202,16.0,18.0,34,-99.99,,,0.00,490.00,VWS V14.01,2013-04-02 19:20:00,
2013-04-02 15:25:00,39.0,12.4,30.00,WSW,248,14.0,20.0,33,-99.99,,,0.00,240.00,VWS V14.01,2013-04-02 19:25:00,
2013-04-02 15:30:00,39.0,12.4,30.00,WSW,248,17.0,21.0,33,-99.99,,,0.00,450.00,VWS V14.01,2013-04-02 19:30:00,
2013-04-02 15:35:00,40.0,13.9,30.00,SSW,202,10.0,12.0,34,-99.99,,,0.00,220.00,VWS V14.01,2013-04-02 19:35:00,
2013-04-02 15:40:00,40.0,13.2,30.00,WSW,248,13.0,16.0,33,-99.99,,,0.00,210.00,VWS V14.01,2013-04-02 19:40:00,
2013-04-02 15:45:00,39.0,12.4,29.99,WSW,248,14.0,19.0,33,-99.99,,,0.00,620.00,VWS V14.01,2013-04-02 19:45:00,
2013-04-02 15:50:00,40.0,13.2,30.00,SW,225,10.0,14.0,33,-99.99,,,0.00,630.00,VWS V14.01,2013-04-02 19:50:00,
2013-04-02 15:55:00,40.0,12.5,29.99,WSW,248,11.0,28.0,32,-99.99,,,0.00,190.00,VWS V14.01,2013-04-02 19:55:00,
2013-04-02 16:00:00,39.0,11.7,30.00,SSW,202,10.0,25.0,32,-99.99,,,0.00,570.00,VWS V14.01,2013-04-02 20:00:00,
2013-04-02 16:05:00,39.0,11.7,30.00,SW,225,20.0,26.0,32,-99.99,,,0.00,170.00,VWS V14.01,2013-04-02 20:05:00,
2013-04-02 16:10:00,39.0,11.7,30.00,SSW,202,17.0,22.0,32,-99.99,,,0.00,580.00,VWS V14.01,2013-04-02 20:10:00,
2013-04-02 16:15:00,40.0,13.2,30.00,SW,225,15.0,19.0,33,-99.99,,,0.00,400.00,VWS V14.01,2013-04-02 20:15:00,
2013-04-02 16:20:00,40.0,11.8,30.00,WSW,248,13.0,23.0,31,-99.99,,,0.00,140.00,VWS V14.01,2013-04-02 20:20:00,
2013-04-02 16:25:00,39.0,11.7,30.00,West,270,18.0,21.0,32,-99.99,,,0.00,190.00,VWS V14.01,2013-04-02 20:25:00,
2013-04-02 16:30:00,40.0,12.5,30.00,West,270,12.0,15.0,32,-99.99,,,0.00,140.00,VWS V14.01,2013-04-02 20:30:00,
2013-04-02 16:35:00,40.0,12.5,30.00,SW,225,11.0,22.0,32,-99.99,,,0.00,460.00,VWS V14.01,2013-04-02 20:35:00,
2013-04-02 16:41:00,40.0,12.5,30.00,West,270,10.0,19.0,32,-99.99,,,0.00,260.00,VWS V14.01,2013-04-02 20:41:00,
2013-04-02 16:46:00,40.0,12.5,30.00,West,270,17.0,21.0,32,-99.99,,,0.00,170.00,VWS V14.01,2013-04-02 20:46:00,
2013-04-02 16:51:00,39.0,11.7,30.01,SW,225,15.0,22.0,32,-99.99,,,0.00,130.00,VWS V14.01,2013-04-02 20:51:00,
2013-04-02 16:56:00,39.0,12.4,30.01,SW,225,15.0,21.0,33,-99.99,,,0.00,110.00,VWS V14.01,2013-04-02 20:56:00,
2013-04-02 17:01:00,39.0,12.4,30.01,SW,225,16.0,18.0,33,-99.99,,,0.00,120.00,VWS V14.01,2013-04-02 21:01:00,
2013-04-02 17:06:00,40.0,13.9,30.01,WSW,248,9.0,13.0,34,-99.99,,,0.00,110.00,VWS V14.01,2013-04-02 21:06:00,
2013-04-02 17:11:00,40.0,13.9,30.01,SW,225,15.0,16.0,34,-99.99,,,0.00,120.00,VWS V14.01,2013-04-02 21:11:00,
2013-04-02 17:16:00,39.0,12.4,30.01,WSW,248,13.0,21.0,33,-99.99,,,0.00,380.00,VWS V14.01,2013-04-02 21:16:00,
2013-04-02 17:21:00,40.0,13.2,30.01,West,270,12.0,16.0,33,-99.99,,,0.00,130.00,VWS V14.01,2013-04-02 21:21:00,
2013-04-02 17:26:00,40.0,12.5,30.01,SSW,202,16.0,20.0,32,-99.99,,,0.00,330.00,VWS V14.01,2013-04-02 21:26:00,
2013-04-02 17:31:00,40.0,12.5,30.01,WSW,248,25.0,27.0,32,-99.99,,,0.00,380.00,VWS V14.01,2013-04-02 21:31:00,
2013-04-02 17:36:00,41.0,14.1,30.02,SSW,202,15.0,22.0,33,-99.99,,,0.00,310.00,VWS V14.01,2013-04-02 21:36:00,
2013-04-02 17:41:00,40.0,12.5,30.01,WSW,248,17.0,34.0,32,-99.99,,,0.00,290.00,VWS V14.01,2013-04-02 21:41:00,
2013-04-02 17:46:00,40.0,13.2,30.02,SW,225,17.0,20.0,33,-99.99,,,0.00,280.00,VWS V14.01,2013-04-02 21:46:00,
2013-04-02 17:51:00,40.0,12.5,30.02,SW,225,16.0,17.0,32,-99.99,,,0.00,160.00,VWS V14.01,2013-04-02 21:51:00,
2013-04-02 17:56:00,40.0,13.9,30.02,WSW,248,10.0,10.0,34,-99.99,,,0.00,160.00,VWS V14.01,2013-04-02 21:56:00,
2013-04-02 18:01:00,40.0,13.9,30.02,SW,225,27.0,28.0,34,-99.99,,,0.00,240.00,VWS V14.01,2013-04-02 22:01:00,
2013-04-02 18:06:00,40.0,13.9,30.02,SW,225,14.0,16.0,34,-99.99,,,0.00,240.00,VWS V14.01,2013-04-02 22:06:00,
2013-04-02 18:12:00,40.0,13.9,30.03,SSW,202,10.0,19.0,34,-99.99,,,0.00,240.00,VWS V14.01,2013-04-02 22:12:00,
2013-04-02 18:17:00,40.0,13.2,30.03,WSW,248,16.0,28.0,33,-99.99,,,0.00,190.00,VWS V14.01,2013-04-02 22:17:00,
2013-04-02 18:22:00,40.0,13.2,30.03,SSW,202,20.0,21.0,33,-99.99,,,0.00,180.00,VWS V14.01,2013-04-02 22:22:00,
2013-04-02 18:27:00,40.0,13.9,30.03,SW,225,13.0,13.0,34,-99.99,,,0.00,160.00,VWS V14.01,2013-04-02 22:27:00,
2013-04-02 18:32:00,40.0,13.2,30.03,West,270,13.0,16.0,33,-99.99,,,0.00,180.00,VWS V14.01,2013-04-02 22:32:00,
2013-04-02 18:37:00,40.0,13.9,30.03,WSW,248,10.0,21.0,34,-99.99,,,0.00,150.00,VWS V14.01,2013-04-02 22:37:00,
2013-04-02 18:42:00,40.0,14.6,30.03,SSW,202,11.0,20.0,35,-99.99,,,0.00,40.00,VWS V14.01,2013-04-02 22:42:00,
2013-04-02 18:47:00,39.0,13.7,30.04,SW,225,8.0,18.0,35,-99.99,,,0.00,50.00,VWS V14.01,2013-04-02 22:47:00,
2013-04-02 18:52:00,39.0,13.7,30.04,WSW,248,12.0,18.0,35,-99.99,,,0.00,40.00,VWS V14.01,2013-04-02 22:52:00,
2013-04-02 18:57:00,39.0,13.7,30.04,SSW,202,25.0,25.0,35,-99.99,,,0.00,30.00,VWS V14.01,2013-04-02 22:57:00,
2013-04-02 19:02:00,39.0,13.7,30.04,SSW,202,17.0,24.0,35,-99.99,,,0.00,70.00,VWS V14.01,2013-04-02 23:02:00,
2013-04-02 19:07:00,39.0,13.7,30.04,SW,225,15.0,18.0,35,-99.99,,,0.00,60.00,VWS V14.01,2013-04-02 23:07:00,
2013-04-02 19:12:00,39.0,13.0,30.04,SW,225,19.0,27.0,34,-99.99,,,0.00,20.00,VWS V14.01,2013-04-02 23:12:00,
2013-04-02 19:17:00,39.0,13.7,30.04,SW,225,15.0,23.0,35,-99.99,,,0.00,30.00,VWS V14.01,2013-04-02 23:17:00,
2013-04-02 19:22:00,38.0,12.8,30.04,SSW,202,10.0,19.0,35,-99.99,,,0.00,10.00,VWS V14.01,2013-04-02 23:22:00,
2013-04-02 19:27:00,38.0,12.8,30.05,SSW,202,12.0,16.0,35,-99.99,,,0.00,10.00,VWS V14.01,2013-04-02 23:27:00,
2013-04-02 19:32:00,38.0,13.4,30.05,SW,225,14.0,16.0,36,-99.99,,,0.00,10.00,VWS V14.01,2013-04-02 23:32:00,
2013-04-02 19:37:00,38.0,13.4,30.05,SW,225,8.0,16.0,36,-99.99,,,0.00,0.00,VWS V14.01,2013-04-02 23:37:00,
2013-04-02 19:42:00,38.0,13.4,30.05,SW,225,6.0,14.0,36,-99.99,,,0.00,0.00,VWS V14.01,2013-04-02 23:42:00,
2013-04-02 19:47:00,38.0,13.4,30.05,SW,225,17.0,22.0,36,-99.99,,,0.00,0.00,VWS V14.01,2013-04-02 23:47:00,
2013-04-02 19:52:00,38.0,13.4,30.06,SW,225,18.0,18.0,36,-99.99,,,0.00,0.00,VWS V14.01,2013-04-02 23:52:00,
2013-04-02 19:57:00,38.0,14.1,30.06,SW,225,9.0,11.0,37,-99.99,,,0.00,0.00,VWS V14.01,2013-04-02 23:57:00,
2013-04-02 20:02:00,38.0,14.1,30.06,SSW,202,9.0,12.0,37,-99.99,,,0.00,0.00,VWS V14.01,2013-04-03 00:02:00,
2013-04-02 20:07:00,38.0,14.1,30.06,SSE,158,8.0,14.0,37,-99.99,,,0.00,0.00,VWS V14.01,2013-04-03 00:07:00,
2013-04-02 20:12:00,37.0,13.2,30.07,SW,225,12.0,14.0,37,-99.99,,,0.00,0.00,VWS V14.01,2013-04-03 00:12:00,
2013-04-02 20:17:00,37.0,13.2,30.07,SSW,202,16.0,16.0,37,-99.99,,,0.00,0.00,VWS V14.01,2013-04-03 00:17:00,
2013-04-02 20:23:00,37.0,13.8,30.07,South,180,12.0,12.0,38,-99.99,,,0.00,0.00,VWS V14.01,2013-04-03 00:23:00,
2013-04-02 20:28:00,37.0,13.8,30.07,SW,225,13.0,14.0,38,-99.99,,,0.00,0.00,VWS V14.01,2013-04-03 00:28:00,
2013-04-02 20:33:00,37.0,13.8,30.07,SW,225,10.0,13.0,38,-99.99,,,0.00,0.00,VWS V14.01,2013-04-03 00:33:00,
2013-04-02 20:38:00,37.0,13.8,30.07,SW,225,12.0,12.0,38,-99.99,,,0.00,0.00,VWS V14.01,2013-04-03 00:38:00,
2013-04-02 20:43:00,37.0,13.8,30.07,SW,225,8.0,13.0,38,-99.99,,,0.00,0.00,VWS V14.01,2013-04-03 00:43:00,
2013-04-02 20:48:00,37.0,13.8,30.08,SW,225,15.0,18.0,38,-99.99,,,0.00,0.00,VWS V14.01,2013-04-03 00:48:00,
2013-04-02 20:53:00,37.0,13.8,30.08,SSW,202,9.0,13.0,38,-99.99,,,0.00,0.00,VWS V14.01,2013-04-03 00:53:00,
2013-04-02 20:58:00,37.0,13.8,30.08,SW,225,6.0,10.0,38,-99.99,,,0.00,0.00,VWS V14.01,2013-04-03 00:58:00,
2013-04-02 21:03:00,37.0,13.8,30.09,WSW,248,5.0,10.0,38,-99.99,,,0.00,0.00,VWS V14.01,2013-04-03 01:03:00,
2013-04-02 21:08:00,36.0,13.5,30.09,WSW,248,4.0,12.0,39,-99.99,,,0.00,0.00,VWS V14.01,2013-04-03 01:08:00,
2013-04-02 21:13:00,36.0,13.5,30.09,SW,225,8.0,11.0,39,-99.99,,,0.00,0.00,VWS V14.01,2013-04-03 01:13:00,
2013-04-02 21:18:00,36.0,13.5,30.09,SW,225,9.0,9.0,39,-99.99,,,0.00,0.00,VWS V14.01,2013-04-03 01:18:00,
2013-04-02 21:23:00,36.0,14.0,30.09,WSW,248,8.0,11.0,40,-99.99,,,0.00,0.00,VWS V14.01,2013-04-03 01:23:00,
2013-04-02 21:28:00,36.0,14.0,30.10,SW,225,13.0,13.0,40,-99.99,,,0.00,0.00,VWS V14.01,2013-04-03 01:28:00,
2013-04-02 21:33:00,36.0,14.0,30.10,WSW,248,6.0,9.0,40,-99.99,,,0.00,0.00,VWS V14.01,2013-04-03 01:33:00,
2013-04-02 21:38:00,36.0,14.0,30.10,WSW,248,5.0,9.0,40,-99.99,,,0.00,0.00,VWS V14.01,2013-04-03 01:38:00,
2013-04-02 21:43:00,36.0,14.0,30.10,West,270,8.0,10.0,40,-99.99,,,0.00,0.00,VWS V14.01,2013-04-03 01:43:00,
2013-04-02 21:48:00,35.0,13.1,30.10,WSW,248,9.0,10.0,40,-99.99,,,0.00,0.00,VWS V14.01,2013-04-03 01:48:00,
2013-04-02 21:53:00,35.0,13.1,30.10,West,270,8.0,9.0,40,-99.99,,,0.00,0.00,VWS V14.01,2013-04-03 01:53:00,
2013-04-02 21:58:00,35.0,13.1,30.10,SW,225,4.0,5.0,40,-99.99,,,0.00,0.00,VWS V14.01,2013-04-03 01:58:00,
2013-04-02 22:03:00,35.0,13.1,30.11,WSW,248,10.0,14.0,40,-99.99,,,0.00,0.00,VWS V14.01,2013-04-03 02:03:00,
2013-04-02 22:08:00,35.0,13.1,30.11,WSW,248,6.0,13.0,40,-99.99,,,0.00,0.00,VWS V14.01,2013-04-03 02:08:00,
2013-04-02 22:13:00,35.0,13.1,30.11,WSW,248,7.0,10.0,40,-99.99,,,0.00,0.00,VWS V14.01,2013-04-03 02:13:00,
2013-04-02 22:18:00,35.0,13.1,30.11,SSW,202,9.0,12.0,40,-99.99,,,0.00,0.00,VWS V14.01,2013-04-03 02:18:00,
2013-04-02 22:23:00,35.0,13.1,30.11,SW,225,9.0,11.0,40,-99.99,,,0.00,0.00,VWS V14.01,2013-04-03 02:23:00,
2013-04-02 22:28:00,34.0,12.8,30.11,WSW,248,5.0,6.0,41,-99.99,,,0.00,0.00,VWS V14.01,2013-04-03 02:28:00,
2013-04-02 22:33:00,34.0,12.2,30.11,WSW,248,14.0,15.0,40,-99.99,,,0.00,0.00,VWS V14.01,2013-04-03 02:33:00,
2013-04-02 22:38:00,34.0,12.2,30.11,SW,225,10.0,13.0,40,-99.99,,,0.00,0.00,VWS V14.01,2013-04-03 02:38:00,
2013-04-02 22:43:00,34.0,12.2,30.12,West,270,9.0,14.0,40,-99.99,,,0.00,0.00,VWS V14.01,2013-04-03 02:43:00,
2013-04-02 22:48:00,34.0,12.2,30.12,WSW,248,6.0,7.0,40,-99.99,,,0.00,0.00,VWS V14.01,2013-04-03 02:48:00,
2013-04-02 22:53:00,34.0,12.2,30.12,WSW,248,8.0,8.0,40,-99.99,,,0.00,0.00,VWS V14.01,2013-04-03 02:53:00,
2013-04-02 22:55:00,34.0,13.9,30.12,SW,225,3.0,5.0,43,-99.99,,,0.00,0.00,VWS V14.01,2013-04-03 02:55:00,
2013-04-02 22:56:00,34.0,13.9,30.12,WSW,248,3.0,5.0,43,-99.99,,,0.00,0.00,VWS V14.01,2013-04-03 02:56:00,
2013-04-02 22:57:00,34.0,13.9,30.12,SW,225,3.0,4.0,43,-99.99,,,0.00,0.00,VWS V14.01,2013-04-03 02:57:00,
2013-04-02 22:58:00,34.0,12.2,30.12,SW,225,6.0,7.0,40,-99.99,,,0.00,0.00,VWS V14.01,2013-04-03 02:58:00,
2013-04-02 22:59:00,34.0,13.9,30.12,SSW,202,4.0,5.0,43,-99.99,,,0.00,0.00,VWS V14.01,2013-04-03 02:59:00,
2013-04-02 23:00:00,33.0,13.0,30.12,WSW,248,4.0,6.0,43,-99.99,,,0.00,0.00,VWS V14.01,2013-04-03 03:00:00,
2013-04-02 23:01:00,34.0,13.9,30.12,SW,225,2.0,6.0,43,-99.99,,,0.00,0.00,VWS V14.01,2013-04-03 03:01:00,
2013-04-02 23:02:00,33.0,13.0,30.12,SW,225,7.0,10.0,43,-99.99,,,0.00,0.00,VWS V14.01,2013-04-03 03:02:00,
2013-04-02 23:03:00,34.0,12.8,30.12,WSW,248,6.0,6.0,41,-99.99,,,0.00,0.00,VWS V14.01,2013-04-03 03:03:00,
2013-04-02 23:08:00,34.0,12.2,30.12,WSW,248,5.0,5.0,40,-99.99,,,0.00,0.00,VWS V14.01,2013-04-03 03:08:00,
2013-04-02 23:13:00,34.0,12.8,30.12,South,180,1.0,2.0,41,-99.99,,,0.00,0.00,VWS V14.01,2013-04-03 03:13:00,
2013-04-02 23:18:00,34.0,13.3,30.12,SSW,202,2.0,3.0,42,-99.99,,,0.00,0.00,VWS V14.01,2013-04-03 03:18:00,
2013-04-02 23:23:00,34.0,13.3,30.12,SSW,202,0.0,1.0,42,-99.99,,,0.00,0.00,VWS V14.01,2013-04-03 03:23:00,
2013-04-02 23:28:00,34.0,13.9,30.12,SSE,158,5.0,5.0,43,-99.99,,,0.00,0.00,VWS V14.01,2013-04-03 03:28:00,
2013-04-02 23:34:00,34.0,13.9,30.12,SW,225,1.0,4.0,43,-99.99,,,0.00,0.00,VWS V14.01,2013-04-03 03:34:00,
2013-04-02 23:39:00,34.0,14.4,30.12,SW,225,4.0,4.0,44,-99.99,,,0.00,0.00,VWS V14.01,2013-04-03 03:39:00,
2013-04-02 23:44:00,34.0,13.9,30.12,WSW,248,2.0,5.0,43,-99.99,,,0.00,0.00,VWS V14.01,2013-04-03 03:44:00,
2013-04-02 23:49:00,34.0,13.9,30.12,SSW,202,2.0,4.0,43,-99.99,,,0.00,0.00,VWS V14.01,2013-04-03 03:49:00,
2013-04-02 23:54:00,34.0,13.9,30.12,SW,225,2.0,4.0,43,-99.99,,,0.00,0.00,VWS V14.01,2013-04-03 03:54:00,
2013-04-02 23:59:00,34.0,13.9,30.12,WSW,248,5.0,7.0,43,-99.99,,,0.00,0.00,VWS V14.01,2013-04-03 03:59:00,